Time;durP1;ratioP1;P1;durP2;ratioP2;P2;SDS_P1;SDS_P2;PMS_P1;PMS_P2;Temp;Humidity;BMP_temperature;BMP_pressure;BME280_temperature;BME280_humidity;BME280_pressure;Samples;Min_cycle;Max_cycle;Signal;HPM_P1;HPM_P2
2022/09/27 00:01:15;;;;;;;3.60;3.30;;;;;;;;;;5049671;28;20281;-45
2022/09/27 00:03:41;;;;;;;4.20;3.80;;;;;;;;;;5054050;28;20201;-45
2022/09/27 00:06:11;;;;;;;4.30;3.30;;;;;;;;;;5051332;28;20212;-45
2022/09/27 00:08:37;;;;;;;4.10;3.70;;;;;;;;;;5053072;28;20208;-45
2022/09/27 00:11:04;;;;;;;4.80;4.10;;;;;;;;;;5053460;28;20188;-45
2022/09/27 00:13:30;;;;;;;4.03;3.73;;;;;;;;;;5052136;28;20199;-45
2022/09/27 00:15:57;;;;;;;4.43;3.97;;;;;;;;;;5053655;28;20203;-45
2022/09/27 00:18:23;;;;;;;4.47;3.80;;;;;;;;;;5053239;28;20226;-45
2022/09/27 00:20:49;;;;;;;4.53;4.13;;;;;;;;;;5052953;28;20765;-45
2022/09/27 00:23:16;;;;;;;4.43;4.03;;;;;;;;;;5053115;28;20196;-45
2022/09/27 00:25:42;;;;;;;5.50;4.03;;;;;;;;;;5053508;28;20248;-45
2022/09/27 00:28:08;;;;;;;4.40;4.00;;;;;;;;;;5053489;28;20274;-45
2022/09/27 00:30:34;;;;;;;4.50;4.10;;;;;;;;;;5053118;28;20667;-45
2022/09/27 00:33:00;;;;;;;5.17;4.77;;;;;;;;;;5053601;28;20287;-45
2022/09/27 00:35:26;;;;;;;5.03;4.60;;;;;;;;;;5053525;28;20206;-45
2022/09/27 00:37:52;;;;;;;5.20;4.33;;;;;;;;;;5053057;28;20685;-45
2022/09/27 00:40:22;;;;;;;4.83;4.43;;;;;;;;;;5052919;28;20200;-45
2022/09/27 00:42:49;;;;;;;5.03;4.53;;;;;;;;;;5051416;28;20227;-45
2022/09/27 00:45:16;;;;;;;5.40;4.90;;;;;;;;;;5050666;28;20216;-45
2022/09/27 00:47:44;;;;;;;5.83;5.30;;;;;;;;;;5053464;28;20250;-45
2022/09/27 00:50:17;;;;;;;6.17;5.67;;;;;;;;;;5051497;28;20200;-45
2022/09/27 00:52:45;;;;;;;5.77;5.27;;;;;;;;;;5053743;28;20193;-45
2022/09/27 00:55:14;;;;;;;7.33;6.60;;;;;;;;;;5053165;28;20200;-45
2022/09/27 00:57:42;;;;;;;8.10;7.33;;;;;;;;;;5053057;28;20206;-45
2022/09/27 01:00:09;;;;;;;8.60;7.80;;;;;;;;;;5051393;28;20724;-45
2022/09/27 01:02:37;;;;;;;7.30;6.70;;;;;;;;;;5053030;28;20204;-45
2022/09/27 01:05:03;;;;;;;8.30;7.50;;;;;;;;;;5052341;28;20255;-45
2022/09/27 01:07:30;;;;;;;9.00;8.30;;;;;;;;;;5053062;28;20228;-45
2022/09/27 01:09:56;;;;;;;9.20;8.47;;;;;;;;;;5052865;28;20200;-45
2022/09/27 01:12:23;;;;;;;10.07;9.17;;;;;;;;;;5051652;28;20224;-45
2022/09/27 01:14:59;;;;;;;9.70;8.83;;;;;;;;;;5052798;28;20196;-45
2022/09/27 01:17:32;;;;;;;9.60;8.70;;;;;;;;;;5053106;28;20207;-45
2022/09/27 01:20:08;;;;;;;10.27;9.27;;;;;;;;;;5052688;28;20207;-45
2022/09/27 01:22:37;;;;;;;12.37;11.23;;;;;;;;;;5052784;28;20579;-45
2022/09/27 01:25:20;;;;;;;12.77;11.63;;;;;;;;;;5052735;28;20251;-45
2022/09/27 01:28:02;;;;;;;12.10;10.60;;;;;;;;;;5053055;28;20196;-44
2022/09/27 01:30:32;;;;;;;12.57;11.47;;;;;;;;;;5052503;28;20246;-45
2022/09/27 01:33:04;;;;;;;14.17;12.87;;;;;;;;;;5052718;28;20674;-45
2022/09/27 01:35:33;;;;;;;12.90;11.60;;;;;;;;;;5052708;28;20556;-45
2022/09/27 01:38:04;;;;;;;11.67;10.67;;;;;;;;;;5052365;28;20680;-45
2022/09/27 01:40:33;;;;;;;12.83;11.63;;;;;;;;;;5052826;28;20284;-45
2022/09/27 01:43:05;;;;;;;14.00;12.70;;;;;;;;;;5052610;28;20247;-44
2022/09/27 01:45:34;;;;;;;13.77;12.57;;;;;;;;;;5052224;28;20228;-45
2022/09/27 01:48:02;;;;;;;14.33;13.03;;;;;;;;;;5052178;28;20203;-44
2022/09/27 01:50:31;;;;;;;14.20;12.80;;;;;;;;;;5052408;28;20231;-45
2022/09/27 01:53:01;;;;;;;12.60;11.40;;;;;;;;;;5052321;28;20208;-45
2022/09/27 01:55:29;;;;;;;12.83;11.63;;;;;;;;;;5052429;28;20200;-45
2022/09/27 01:57:58;;;;;;;13.00;11.80;;;;;;;;;;5052392;28;20203;-45
2022/09/27 02:00:24;;;;;;;12.90;11.67;;;;;;;;;;5052460;28;20219;-45
2022/09/27 02:02:54;;;;;;;14.50;13.20;;;;;;;;;;5051203;28;20200;-45
2022/09/27 02:05:22;;;;;;;13.50;12.23;;;;;;;;;;5051771;28;20721;-45
2022/09/27 02:07:51;;;;;;;15.93;14.33;;;;;;;;;;5051547;28;20228;-45
2022/09/27 02:10:19;;;;;;;15.47;14.07;;;;;;;;;;5051894;28;20607;-45
2022/09/27 02:12:49;;;;;;;13.43;12.23;;;;;;;;;;5052023;28;20199;-45
2022/09/27 02:15:15;;;;;;;15.03;13.63;;;;;;;;;;5052028;28;20276;-45
2022/09/27 02:17:43;;;;;;;14.73;13.40;;;;;;;;;;5050214;28;20192;-45
2022/09/27 02:20:14;;;;;;;15.70;14.20;;;;;;;;;;5051756;28;20220;-45
2022/09/27 02:22:44;;;;;;;16.20;14.17;;;;;;;;;;5051729;28;20670;-45
2022/09/27 02:25:13;;;;;;;13.87;12.60;;;;;;;;;;5051456;28;20243;-45
2022/09/27 02:27:41;;;;;;;14.30;13.00;;;;;;;;;;5051970;28;20637;-45
2022/09/27 02:30:10;;;;;;;14.87;13.37;;;;;;;;;;5051714;28;20283;-45
2022/09/27 02:32:37;;;;;;;13.17;11.97;;;;;;;;;;5051987;28;20224;-45
2022/09/27 02:35:06;;;;;;;15.27;13.77;;;;;;;;;;5051675;28;20555;-45
2022/09/27 02:37:33;;;;;;;15.23;13.83;;;;;;;;;;5051663;28;20251;-45
2022/09/27 02:39:59;;;;;;;14.20;12.87;;;;;;;;;;5051777;28;20560;-45
2022/09/27 02:42:26;;;;;;;14.87;13.30;;;;;;;;;;5051299;28;20567;-45
2022/09/27 02:44:52;;;;;;;14.87;13.47;;;;;;;;;;5051676;28;20231;-45
2022/09/27 02:47:24;;;;;;;16.73;14.03;;;;;;;;;;5051360;28;20215;-45
2022/09/27 02:49:56;;;;;;;15.20;13.80;;;;;;;;;;5051622;28;20235;-45
2022/09/27 02:52:31;;;;;;;17.33;15.37;;;;;;;;;;5033469;28;20200;-45
2022/09/27 02:55:05;;;;;;;15.00;13.60;;;;;;;;;;5051565;28;20200;-45
2022/09/27 02:57:36;;;;;;;12.67;11.47;;;;;;;;;;5051502;28;20564;-45
2022/09/27 03:00:08;;;;;;;13.13;11.27;;;;;;;;;;5051515;28;20202;-45
2022/09/27 03:02:37;;;;;;;11.07;9.90;;;;;;;;;;5048604;28;20223;-45
2022/09/27 03:05:06;;;;;;;9.73;8.63;;;;;;;;;;5051056;28;20208;-45
2022/09/27 03:07:32;;;;;;;8.47;7.00;;;;;;;;;;5050683;28;20690;-45
2022/09/27 03:10:00;;;;;;;6.67;5.97;;;;;;;;;;5050700;28;20566;-45
2022/09/27 03:12:26;;;;;;;8.33;6.20;;;;;;;;;;5051322;28;20210;-46
2022/09/27 03:14:52;;;;;;;7.60;5.17;;;;;;;;;;5051562;28;20196;-46
2022/09/27 03:17:18;;;;;;;6.00;5.20;;;;;;;;;;5051150;28;20220;-45
2022/09/27 03:19:44;;;;;;;7.67;5.20;;;;;;;;;;5050584;28;20236;-45
2022/09/27 03:22:10;;;;;;;5.67;4.90;;;;;;;;;;5050893;28;20204;-45
2022/09/27 03:24:36;;;;;;;6.60;5.27;;;;;;;;;;5051331;28;20279;-45
2022/09/27 03:27:03;;;;;;;6.87;4.40;;;;;;;;;;5050978;28;20327;-45
2022/09/27 03:29:29;;;;;;;4.77;4.23;;;;;;;;;;5051144;28;20204;-45
2022/09/27 03:31:55;;;;;;;5.97;4.63;;;;;;;;;;5050885;28;20283;-45
2022/09/27 03:34:21;;;;;;;6.67;4.93;;;;;;;;;;5051077;28;20227;-45
2022/09/27 03:36:47;;;;;;;6.27;4.40;;;;;;;;;;5053945;28;20198;-45
2022/09/27 03:39:13;;;;;;;5.30;4.80;;;;;;;;;;5054851;28;20251;-45
2022/09/27 03:41:40;;;;;;;7.63;5.50;;;;;;;;;;5052507;28;20192;-45
2022/09/27 03:44:07;;;;;;;6.93;5.40;;;;;;;;;;5051437;28;20705;-45
2022/09/27 03:46:33;;;;;;;7.60;6.53;;;;;;;;;;5052102;28;20224;-45
2022/09/27 03:48:59;;;;;;;8.57;6.50;;;;;;;;;;5054458;28;20196;-45
2022/09/27 03:51:26;;;;;;;7.17;6.40;;;;;;;;;;5053510;28;20291;-45
2022/09/27 03:53:52;;;;;;;6.93;6.27;;;;;;;;;;5051995;28;20188;-46
2022/09/27 03:56:18;;;;;;;10.43;6.30;;;;;;;;;;5054265;28;20598;-45
2022/09/27 03:58:44;;;;;;;9.53;6.40;;;;;;;;;;5054455;28;20715;-45
2022/09/27 04:01:11;;;;;;;9.20;6.20;;;;;;;;;;5054154;28;20200;-45
2022/09/27 04:03:37;;;;;;;10.37;6.33;;;;;;;;;;5053769;28;20184;-45
2022/09/27 04:06:04;;;;;;;10.10;6.00;;;;;;;;;;5054072;28;20792;-45
2022/09/27 04:08:30;;;;;;;8.13;6.27;;;;;;;;;;5053981;28;20220;-46
2022/09/27 04:10:56;;;;;;;9.90;6.10;;;;;;;;;;5054257;28;20204;-46
2022/09/27 04:13:22;;;;;;;6.03;5.53;;;;;;;;;;5054235;28;20200;-46
2022/09/27 04:15:48;;;;;;;7.77;5.50;;;;;;;;;;5054278;28;20198;-45
2022/09/27 04:18:15;;;;;;;9.07;5.50;;;;;;;;;;5053895;28;20224;-46
2022/09/27 04:20:41;;;;;;;9.27;5.90;;;;;;;;;;5051523;28;20224;-46
2022/09/27 04:23:07;;;;;;;7.07;5.50;;;;;;;;;;5051312;28;20700;-46
2022/09/27 04:25:33;;;;;;;5.63;4.83;;;;;;;;;;5052119;28;20200;-46
2022/09/27 04:28:00;;;;;;;6.57;5.20;;;;;;;;;;5053964;28;20231;-46
2022/09/27 04:30:26;;;;;;;6.00;5.30;;;;;;;;;;5053570;28;20714;-46
2022/09/27 04:32:52;;;;;;;6.60;5.33;;;;;;;;;;5054068;28;20200;-46
2022/09/27 04:38:04;;;;;;;7.40;5.10;;;;;;;;;;5053899;28;20206;-46
2022/09/27 04:40:33;;;;;;;7.53;5.87;;;;;;;;;;5053629;28;20294;-46
2022/09/27 04:42:59;;;;;;;7.13;5.20;;;;;;;;;;5053653;28;20220;-46
2022/09/27 04:45:25;;;;;;;6.83;6.17;;;;;;;;;;5053364;28;20229;-46
2022/09/27 04:47:51;;;;;;;7.60;5.57;;;;;;;;;;5053302;28;20207;-46
2022/09/27 04:50:18;;;;;;;7.63;5.80;;;;;;;;;;5052873;28;20295;-46
2022/09/27 04:52:49;;;;;;;7.03;5.60;;;;;;;;;;5052771;28;20670;-46
2022/09/27 04:55:15;;;;;;;7.50;4.97;;;;;;;;;;5053054;28;20666;-46
2022/09/27 04:57:41;;;;;;;7.43;4.40;;;;;;;;;;5053492;28;20288;-46
2022/09/27 05:00:08;;;;;;;7.83;5.00;;;;;;;;;;5053307;28;20291;-46
2022/09/27 05:02:34;;;;;;;5.90;5.30;;;;;;;;;;5053495;28;20203;-46
2022/09/27 05:05:00;;;;;;;7.57;5.50;;;;;;;;;;5053300;28;20275;-46
2022/09/27 05:07:26;;;;;;;8.07;5.47;;;;;;;;;;5052980;28;20260;-46
2022/09/27 05:09:54;;;;;;;7.13;5.80;;;;;;;;;;5053304;28;20203;-46
2022/09/27 05:12:20;;;;;;;7.57;5.77;;;;;;;;;;5053020;28;20267;-46
2022/09/27 05:14:46;;;;;;;6.87;5.57;;;;;;;;;;5053067;28;20227;-46
2022/09/27 05:17:13;;;;;;;8.13;5.30;;;;;;;;;;5052392;28;20192;-46
2022/09/27 05:19:39;;;;;;;7.17;4.97;;;;;;;;;;5052785;28;20204;-46
2022/09/27 05:22:05;;;;;;;6.53;4.70;;;;;;;;;;5052620;28;20203;-46
2022/09/27 05:24:32;;;;;;;6.17;4.90;;;;;;;;;;5052603;28;20222;-46
2022/09/27 05:26:59;;;;;;;6.10;4.60;;;;;;;;;;5052263;28;20228;-46
2022/09/27 05:29:25;;;;;;;7.53;4.67;;;;;;;;;;5052326;28;20267;-46
2022/09/27 05:31:51;;;;;;;5.70;5.07;;;;;;;;;;5052719;28;20243;-46
2022/09/27 05:34:19;;;;;;;4.97;4.47;;;;;;;;;;5052803;28;20204;-46
2022/09/27 05:36:46;;;;;;;6.20;4.50;;;;;;;;;;5052540;28;20577;-46
2022/09/27 05:39:13;;;;;;;7.77;5.50;;;;;;;;;;5051519;28;20200;-46
2022/09/27 05:41:39;;;;;;;5.83;4.93;;;;;;;;;;5052341;28;20737;-46
2022/09/27 05:44:07;;;;;;;6.10;4.57;;;;;;;;;;5052489;28;20204;-46
2022/09/27 05:46:33;;;;;;;6.13;4.63;;;;;;;;;;5052462;28;20224;-46
2022/09/27 05:48:59;;;;;;;8.77;5.03;;;;;;;;;;5052351;28;20577;-46
2022/09/27 05:51:25;;;;;;;4.90;4.37;;;;;;;;;;5050363;28;20210;-46
2022/09/27 05:53:51;;;;;;;6.70;4.63;;;;;;;;;;5052436;28;20196;-46
2022/09/27 05:56:17;;;;;;;7.90;4.37;;;;;;;;;;5052329;28;20204;-48
2022/09/27 05:58:43;;;;;;;5.83;4.30;;;;;;;;;;5051964;28;20196;-46
2022/09/27 06:01:10;;;;;;;5.60;4.40;;;;;;;;;;5052322;28;20203;-46
2022/09/27 06:03:36;;;;;;;6.10;4.37;;;;;;;;;;5052103;28;20200;-46
2022/09/27 06:06:05;;;;;;;4.43;3.83;;;;;;;;;;5052091;28;20251;-46
2022/09/27 06:08:33;;;;;;;5.37;4.27;;;;;;;;;;5051642;28;20220;-46
2022/09/27 06:11:02;;;;;;;5.47;4.30;;;;;;;;;;5050077;28;20208;-46
2022/09/27 06:13:27;;;;;;;6.27;4.23;;;;;;;;;;5050163;28;20223;-46
2022/09/27 06:15:53;;;;;;;5.20;4.13;;;;;;;;;;5051732;28;20663;-46
2022/09/27 06:18:21;;;;;;;4.57;4.10;;;;;;;;;;5051228;28;20259;-46
2022/09/27 06:20:47;;;;;;;10.00;4.90;;;;;;;;;;5051771;28;20204;-46
2022/09/27 06:23:14;;;;;;;6.00;3.90;;;;;;;;;;5051704;28;20280;-46
2022/09/27 06:25:40;;;;;;;7.03;3.90;;;;;;;;;;5052014;28;20200;-46
2022/09/27 06:28:06;;;;;;;5.07;3.60;;;;;;;;;;5051884;28;20655;-46
2022/09/27 06:30:32;;;;;;;6.50;3.73;;;;;;;;;;5049729;28;20346;-46
2022/09/27 06:32:59;;;;;;;5.00;4.50;;;;;;;;;;5051598;28;20637;-46
2022/09/27 06:35:27;;;;;;;5.27;3.80;;;;;;;;;;5050446;28;20227;-46
2022/09/27 06:37:53;;;;;;;3.70;3.30;;;;;;;;;;5050797;28;20234;-46
2022/09/27 06:40:19;;;;;;;4.47;3.80;;;;;;;;;;5049570;28;20208;-46
2022/09/27 06:42:46;;;;;;;7.97;3.53;;;;;;;;;;5051025;28;20204;-45
2022/09/27 06:45:12;;;;;;;4.13;3.00;;;;;;;;;;5049472;28;20207;-45
2022/09/27 06:47:38;;;;;;;5.87;3.40;;;;;;;;;;5051579;28;20306;-45
2022/09/27 06:50:05;;;;;;;5.70;3.60;;;;;;;;;;5051274;28;20196;-45
2022/09/27 06:52:33;;;;;;;4.83;3.67;;;;;;;;;;5051286;28;20207;-46
2022/09/27 06:55:00;;;;;;;4.40;3.47;;;;;;;;;;5051254;28;20208;-46
2022/09/27 07:00:25;;;;;;;5.43;3.73;;;;;;;;;;5051388;28;20270;-45
2022/09/27 07:02:51;;;;;;;4.57;3.40;;;;;;;;;;5049934;28;20200;-46
2022/09/27 07:05:17;;;;;;;5.33;3.20;;;;;;;;;;5051342;28;20204;-46
2022/09/27 07:07:46;;;;;;;4.50;3.23;;;;;;;;;;5051356;28;20322;-46
2022/09/27 07:10:12;;;;;;;4.33;3.00;;;;;;;;;;5051376;28;20635;-46
2022/09/27 07:12:38;;;;;;;5.13;2.90;;;;;;;;;;5054184;28;20236;-46
2022/09/27 07:15:05;;;;;;;5.17;3.10;;;;;;;;;;5054647;28;20192;-46
2022/09/27 07:17:31;;;;;;;4.23;2.90;;;;;;;;;;5054950;28;20200;-46
2022/09/27 07:19:57;;;;;;;5.00;2.77;;;;;;;;;;5055258;28;20611;-47
2022/09/27 07:22:23;;;;;;;3.73;2.50;;;;;;;;;;5054989;28;20196;-46
2022/09/27 07:24:50;;;;;;;4.60;2.90;;;;;;;;;;5054616;28;20231;-46
2022/09/27 07:27:17;;;;;;;3.57;2.70;;;;;;;;;;5054939;28;20232;-46
2022/09/27 07:29:43;;;;;;;4.00;2.90;;;;;;;;;;5056670;28;20222;-46
2022/09/27 07:32:09;;;;;;;4.40;3.00;;;;;;;;;;5054541;28;20247;-45
2022/09/27 07:34:35;;;;;;;3.23;2.60;;;;;;;;;;5054695;28;20204;-45
2022/09/27 07:37:04;;;;;;;4.50;2.90;;;;;;;;;;5054532;28;20199;-45
2022/09/27 07:39:30;;;;;;;3.10;2.70;;;;;;;;;;5054694;28;20276;-45
2022/09/27 07:41:57;;;;;;;4.70;2.80;;;;;;;;;;5054864;28;20219;-45
2022/09/27 07:44:24;;;;;;;4.23;2.40;;;;;;;;;;5054629;28;20223;-45
2022/09/27 07:46:50;;;;;;;4.67;2.80;;;;;;;;;;5054537;28;20247;-47
2022/09/27 07:49:16;;;;;;;2.40;2.00;;;;;;;;;;5054439;28;20208;-45
2022/09/27 07:51:42;;;;;;;4.57;2.33;;;;;;;;;;5054329;28;20200;-45
2022/09/27 07:54:08;;;;;;;3.53;2.00;;;;;;;;;;5054239;28;20236;-46
2022/09/27 07:56:34;;;;;;;3.73;2.10;;;;;;;;;;5054408;28;20200;-45
2022/09/27 07:59:01;;;;;;;2.77;1.90;;;;;;;;;;5054258;28;20562;-45
2022/09/27 08:01:27;;;;;;;5.83;2.07;;;;;;;;;;5054172;28;20208;-45
2022/09/27 08:03:54;;;;;;;5.20;1.80;;;;;;;;;;5054051;28;20204;-46
2022/09/27 08:06:20;;;;;;;5.73;2.20;;;;;;;;;;5054146;28;20315;-45
2022/09/27 08:08:46;;;;;;;2.37;1.83;;;;;;;;;;5052330;28;20318;-57
2022/09/27 08:11:14;;;;;;;2.27;1.73;;;;;;;;;;5054365;28;20239;-45
2022/09/27 08:13:40;;;;;;;3.50;1.90;;;;;;;;;;5045408;28;20228;-45
2022/09/27 08:16:07;;;;;;;3.57;2.00;;;;;;;;;;5053835;28;20199;-45
2022/09/27 08:18:33;;;;;;;3.60;1.80;;;;;;;;;;5050061;28;20658;-45
2022/09/27 08:20:59;;;;;;;3.10;2.10;;;;;;;;;;5053567;28;20192;-45
2022/09/27 08:23:26;;;;;;;2.70;1.80;;;;;;;;;;5053652;28;20200;-45
2022/09/27 08:25:52;;;;;;;4.43;1.60;;;;;;;;;;5053907;28;20192;-45
2022/09/27 08:28:18;;;;;;;9.33;5.57;;;;;;;;;;5051283;28;20197;-46
2022/09/27 08:30:44;;;;;;;4.30;1.70;;;;;;;;;;5052895;28;20236;-46
2022/09/27 08:33:11;;;;;;;6.03;2.37;;;;;;;;;;5053752;28;20203;-46
2022/09/27 08:35:37;;;;;;;6.43;4.00;;;;;;;;;;5053438;28;20582;-45
2022/09/27 08:38:04;;;;;;;6.70;3.97;;;;;;;;;;5051416;28;20203;-47
2022/09/27 08:40:36;;;;;;;2.90;2.40;;;;;;;;;;5051985;28;20204;-47
2022/09/27 08:43:05;;;;;;;4.80;2.80;;;;;;;;;;5052918;28;20203;-47
2022/09/27 08:45:33;;;;;;;4.50;3.00;;;;;;;;;;5051263;28;20200;-47
2022/09/27 08:48:00;;;;;;;4.10;2.00;;;;;;;;;;5053154;28;20705;-47
2022/09/27 08:50:29;;;;;;;3.67;1.77;;;;;;;;;;5052564;28;20257;-47
2022/09/27 08:52:58;;;;;;;1.53;1.33;;;;;;;;;;5053026;28;20247;-47
2022/09/27 08:55:27;;;;;;;2.20;1.30;;;;;;;;;;5053021;28;20219;-47
2022/09/27 08:57:55;;;;;;;2.73;1.23;;;;;;;;;;5053262;28;20247;-47
2022/09/27 09:00:22;;;;;;;2.53;2.23;;;;;;;;;;5053168;28;20207;-47
2022/09/27 09:02:48;;;;;;;2.63;1.43;;;;;;;;;;5053240;28;20200;-47
2022/09/27 09:05:17;;;;;;;5.93;1.53;;;;;;;;;;5052648;28;20196;-47
2022/09/27 09:07:54;;;;;;;2.17;1.13;;;;;;;;;;5052610;28;20228;-47
2022/09/27 09:13:17;;;;;;;2.87;1.90;;;;;;;;;;5052837;28;20305;-47
2022/09/27 09:15:54;;;;;;;7.57;1.90;;;;;;;;;;5051794;28;20196;-47
2022/09/27 09:18:26;;;;;;;3.80;1.70;;;;;;;;;;5052353;28;20452;-47
2022/09/27 09:20:55;;;;;;;4.10;1.60;;;;;;;;;;5051752;28;20200;-46
2022/09/27 09:23:38;;;;;;;5.60;1.80;;;;;;;;;;5049246;28;20200;-47
2022/09/27 09:26:07;;;;;;;2.17;1.53;;;;;;;;;;5051527;28;20200;-47
2022/09/27 09:28:39;;;;;;;3.17;1.97;;;;;;;;;;5051095;28;20569;-47
2022/09/27 09:31:07;;;;;;;5.47;1.90;;;;;;;;;;5049457;28;20697;-47
2022/09/27 09:33:36;;;;;;;3.87;1.53;;;;;;;;;;5050229;28;20247;-47
2022/09/27 09:36:05;;;;;;;3.00;1.90;;;;;;;;;;5051247;28;20196;-47
2022/09/27 09:38:36;;;;;;;1.63;1.53;;;;;;;;;;5049695;28;20243;-44
2022/09/27 09:41:05;;;;;;;3.27;1.50;;;;;;;;;;5051454;28;20738;-47
2022/09/27 09:43:33;;;;;;;4.23;1.70;;;;;;;;;;5051503;28;20224;-47
2022/09/27 09:46:02;;;;;;;2.17;1.50;;;;;;;;;;5050808;28;20884;-47
2022/09/27 09:48:29;;;;;;;4.03;1.90;;;;;;;;;;5049897;28;20205;-47
2022/09/27 09:50:58;;;;;;;2.80;1.70;;;;;;;;;;5050432;28;20605;-47
2022/09/27 09:53:38;;;;;;;3.00;2.33;;;;;;;;;;5049606;28;20258;-47
2022/09/27 09:56:07;;;;;;;3.83;1.93;;;;;;;;;;5051590;28;20207;-47
2022/09/27 09:58:36;;;;;;;4.77;1.87;;;;;;;;;;5047497;28;20214;-47
2022/09/27 10:01:11;;;;;;;2.57;1.70;;;;;;;;;;5050409;28;20199;-47
2022/09/27 10:03:37;;;;;;;2.00;1.80;;;;;;;;;;5051024;28;20218;-46
2022/09/27 10:06:03;;;;;;;1.73;1.40;;;;;;;;;;5049473;28;20215;-47
2022/09/27 10:08:29;;;;;;;3.97;1.70;;;;;;;;;;5051466;28;20303;-47
2022/09/27 10:10:55;;;;;;;2.07;1.60;;;;;;;;;;5051385;28;20738;-45
2022/09/27 10:13:22;;;;;;;5.60;2.70;;;;;;;;;;5051313;28;20287;-45
2022/09/27 10:15:56;;;;;;;2.90;1.80;;;;;;;;;;5051405;28;20210;-45
2022/09/27 10:18:23;;;;;;;1.60;1.50;;;;;;;;;;5051140;28;20199;-45
2022/09/27 10:20:52;;;;;;;2.77;1.50;;;;;;;;;;5048623;28;20781;-45
2022/09/27 10:23:23;;;;;;;2.67;1.50;;;;;;;;;;5050154;28;20208;-45
2022/09/27 10:25:53;;;;;;;1.90;1.17;;;;;;;;;;5050866;28;20258;-45
2022/09/27 10:28:37;;;;;;;1.73;1.33;;;;;;;;;;5051211;28;20240;-46
2022/09/27 10:31:06;;;;;;;1.53;1.07;;;;;;;;;;5049224;28;20236;-47
2022/09/27 10:33:32;;;;;;;2.27;1.30;;;;;;;;;;5048280;28;20204;-47
2022/09/27 10:35:59;;;;;;;1.87;1.10;;;;;;;;;;5050415;28;20231;-47
2022/09/27 10:38:27;;;;;;;1.57;1.00;;;;;;;;;;5050967;28;20734;-47
2022/09/27 10:40:54;;;;;;;2.10;1.20;;;;;;;;;;5051208;28;20247;-47
2022/09/27 10:43:24;;;;;;;2.10;1.40;;;;;;;;;;5051121;28;20204;-47
2022/09/27 10:45:51;;;;;;;1.43;1.10;;;;;;;;;;5050464;28;20651;-47
2022/09/27 10:48:22;;;;;;;2.40;1.20;;;;;;;;;;5051004;28;20314;-47
2022/09/27 10:50:55;;;;;;;3.83;3.13;;;;;;;;;;5047708;28;20204;-47
2022/09/27 10:53:21;;;;;;;3.57;1.50;;;;;;;;;;5050227;28;20203;-47
2022/09/27 10:55:49;;;;;;;2.03;1.40;;;;;;;;;;5050997;28;20666;-47
2022/09/27 10:58:17;;;;;;;1.93;1.40;;;;;;;;;;5050014;28;20761;-47
2022/09/27 11:00:43;;;;;;;1.43;1.10;;;;;;;;;;5049253;28;20204;-46
2022/09/27 11:03:14;;;;;;;3.20;1.40;;;;;;;;;;5048736;28;20251;-46
2022/09/27 11:05:42;;;;;;;1.57;1.20;;;;;;;;;;5050542;28;20290;-46
2022/09/27 11:08:24;;;;;;;2.13;1.30;;;;;;;;;;5050558;28;20233;-47
2022/09/27 11:11:00;;;;;;;3.33;1.40;;;;;;;;;;5050902;28;20220;-46
2022/09/27 11:13:31;;;;;;;4.40;1.47;;;;;;;;;;5047823;28;20188;-46
2022/09/27 11:16:05;;;;;;;1.63;1.40;;;;;;;;;;5046898;28;20204;-47
2022/09/27 11:18:35;;;;;;;3.87;1.60;;;;;;;;;;5049680;28;20276;-46
2022/09/27 11:21:09;;;;;;;3.57;1.50;;;;;;;;;;5049826;28;20211;-46
2022/09/27 11:23:39;;;;;;;1.37;1.27;;;;;;;;;;5049487;28;20200;-47
2022/09/27 11:26:13;;;;;;;3.67;2.20;;;;;;;;;;5046675;28;20572;-46
2022/09/27 11:28:43;;;;;;;2.10;1.50;;;;;;;;;;5050018;28;20227;-46
2022/09/27 11:31:13;;;;;;;1.67;1.40;;;;;;;;;;5050277;28;20235;-46
2022/09/27 11:33:44;;;;;;;1.60;1.40;;;;;;;;;;5050761;28;20230;-46
2022/09/27 11:36:14;;;;;;;4.10;1.80;;;;;;;;;;5048315;28;20207;-46
2022/09/27 11:38:49;;;;;;;3.17;1.50;;;;;;;;;;5049858;28;20263;-47
2022/09/27 11:41:23;;;;;;;2.37;1.67;;;;;;;;;;5050434;28;20200;-46
2022/09/27 11:44:01;;;;;;;2.90;2.07;;;;;;;;;;5050593;28;20192;-46
2022/09/27 11:46:29;;;;;;;3.97;2.13;;;;;;;;;;5050451;28;20220;-47
2022/09/27 11:49:01;;;;;;;3.03;1.47;;;;;;;;;;5050748;28;20192;-46
2022/09/27 11:51:37;;;;;;;3.60;1.57;;;;;;;;;;5050631;28;20192;-47
2022/09/27 11:54:09;;;;;;;3.50;1.70;;;;;;;;;;5051302;28;20208;-47
2022/09/27 11:56:40;;;;;;;3.20;1.50;;;;;;;;;;5051574;28;20266;-46
2022/09/27 11:59:17;;;;;;;1.83;1.60;;;;;;;;;;5054782;28;20239;-47
2022/09/27 12:01:47;;;;;;;3.17;1.50;;;;;;;;;;5054423;28;20235;-46
2022/09/27 12:04:34;;;;;;;2.40;1.63;;;;;;;;;;5052299;28;20271;-46
2022/09/27 12:07:06;;;;;;;4.70;2.00;;;;;;;;;;5051384;28;20730;-46
2022/09/27 12:09:34;;;;;;;1.83;1.50;;;;;;;;;;5054241;28;20200;-46
2022/09/27 12:12:03;;;;;;;3.30;1.70;;;;;;;;;;5053915;28;20302;-46
2022/09/27 12:14:32;;;;;;;3.10;1.60;;;;;;;;;;5054275;28;20287;-46
2022/09/27 12:16:59;;;;;;;5.07;1.60;;;;;;;;;;5053875;28;20200;-46
2022/09/27 12:19:26;;;;;;;3.27;2.07;;;;;;;;;;5053927;28;20307;-46
2022/09/27 12:21:54;;;;;;;3.10;1.87;;;;;;;;;;5054192;28;20218;-46
2022/09/27 12:24:22;;;;;;;2.57;1.90;;;;;;;;;;5054001;28;20565;-46
2022/09/27 12:26:50;;;;;;;4.93;1.90;;;;;;;;;;5053887;28;20235;-47
2022/09/27 12:29:18;;;;;;;2.70;1.80;;;;;;;;;;5054041;28;20761;-46
2022/09/27 12:31:46;;;;;;;5.10;1.90;;;;;;;;;;5053381;28;20243;-46
2022/09/27 12:34:15;;;;;;;2.83;1.63;;;;;;;;;;5054242;28;20200;-46
2022/09/27 12:36:46;;;;;;;4.70;1.77;;;;;;;;;;5053627;28;20231;-46
2022/09/27 12:39:17;;;;;;;2.90;1.90;;;;;;;;;;5053998;28;20204;-46
2022/09/27 12:41:47;;;;;;;1.70;1.60;;;;;;;;;;5050203;28;20646;-46
2022/09/27 12:44:13;;;;;;;3.30;1.90;;;;;;;;;;5049945;28;20246;-47
2022/09/27 12:46:47;;;;;;;2.33;1.50;;;;;;;;;;5053034;28;20279;-46
2022/09/27 12:49:15;;;;;;;3.50;1.77;;;;;;;;;;5052938;28;20196;-46
2022/09/27 12:51:45;;;;;;;2.47;1.80;;;;;;;;;;5043851;28;20201;-45
2022/09/27 12:54:24;;;;;;;2.10;1.60;;;;;;;;;;5052787;28;20201;-45
2022/09/27 12:56:56;;;;;;;2.90;1.70;;;;;;;;;;5050740;28;20192;-45
2022/09/27 12:59:35;;;;;;;3.37;1.70;;;;;;;;;;5050683;28;20235;-44
2022/09/27 13:02:17;;;;;;;3.07;1.53;;;;;;;;;;5052508;28;20278;-45
2022/09/27 13:04:50;;;;;;;2.63;1.33;;;;;;;;;;5051911;28;20204;-45
2022/09/27 13:07:23;;;;;;;3.60;1.60;;;;;;;;;;5051759;28;20224;-44
2022/09/27 13:10:10;;;;;;;6.37;1.67;;;;;;;;;;5051598;28;20196;-44
2022/09/27 13:12:38;;;;;;;3.87;1.40;;;;;;;;;;5044458;28;20294;-45
2022/09/27 13:15:07;;;;;;;2.20;1.30;;;;;;;;;;5052009;28;20215;-45
2022/09/27 13:17:52;;;;;;;3.77;1.30;;;;;;;;;;5051679;28;20188;-45
2022/09/27 13:20:38;;;;;;;1.60;1.20;;;;;;;;;;5051614;28;20204;-45
2022/09/27 13:23:24;;;;;;;4.43;1.60;;;;;;;;;;5049888;28;20184;-45
2022/09/27 13:25:53;;;;;;;4.07;1.60;;;;;;;;;;5052047;28;20192;-45
2022/09/27 13:28:32;;;;;;;3.07;1.40;;;;;;;;;;5052046;28;20238;-45
2022/09/27 13:30:59;;;;;;;4.20;1.77;;;;;;;;;;5050450;28;20235;-45
2022/09/27 13:33:33;;;;;;;3.77;1.53;;;;;;;;;;5051267;28;20687;-45
2022/09/27 13:36:06;;;;;;;1.40;1.30;;;;;;;;;;5070180;28;20206;-45
2022/09/27 13:38:32;;;;;;;4.67;1.67;;;;;;;;;;5071332;28;20224;-45
2022/09/27 13:41:13;;;;;;;1.80;1.30;;;;;;;;;;5069831;28;20203;-45
2022/09/27 13:43:46;;;;;;;1.43;1.20;;;;;;;;;;5069568;28;20697;-44
2022/09/27 13:46:15;;;;;;;1.50;0.97;;;;;;;;;;5071977;28;20219;-46
2022/09/27 13:48:46;;;;;;;1.50;1.17;;;;;;;;;;5069698;28;20192;-45
2022/09/27 13:51:17;;;;;;;3.53;1.50;;;;;;;;;;5071709;28;20242;-45
2022/09/27 13:53:54;;;;;;;1.53;0.90;;;;;;;;;;5071902;28;20209;-45
2022/09/27 13:56:35;;;;;;;0.90;0.77;;;;;;;;;;5070854;28;20603;-43
2022/09/27 13:59:04;;;;;;;3.30;1.17;;;;;;;;;;5071191;28;20657;-44
2022/09/27 14:01:32;;;;;;;1.30;1.17;;;;;;;;;;5071789;28;20235;-44
2022/09/27 14:04:00;;;;;;;1.30;1.20;;;;;;;;;;5072023;28;20206;-44
2022/09/27 14:06:30;;;;;;;1.77;1.20;;;;;;;;;;5071911;28;20196;-45
2022/09/27 14:08:58;;;;;;;2.10;1.10;;;;;;;;;;5071518;28;20243;-45
2022/09/27 14:11:27;;;;;;;1.00;0.87;;;;;;;;;;5059183;28;20283;-45
2022/09/27 14:13:53;;;;;;;1.10;1.00;;;;;;;;;;5051268;28;20211;-46
2022/09/27 14:16:21;;;;;;;10.43;8.97;;;;;;;;;;5049240;28;20243;-46
2022/09/27 14:18:49;;;;;;;1.33;1.10;;;;;;;;;;5047347;28;20227;-46
2022/09/27 14:21:17;;;;;;;0.97;0.93;;;;;;;;;;5050665;28;20203;-45
2022/09/27 14:23:43;;;;;;;1.10;0.90;;;;;;;;;;5050665;28;20620;-45
2022/09/27 14:26:20;;;;;;;0.97;0.97;;;;;;;;;;5050938;28;20223;-45
2022/09/27 14:28:46;;;;;;;1.27;0.90;;;;;;;;;;5049664;28;20262;-45
2022/09/27 14:31:16;;;;;;;1.20;1.10;;;;;;;;;;5050244;28;20633;-46
2022/09/27 14:33:44;;;;;;;4.20;1.43;;;;;;;;;;5048616;28;20240;-45
2022/09/27 14:38:57;;;;;;;2.83;1.40;;;;;;;;;;5050901;28;20285;-47
2022/09/27 14:41:23;;;;;;;1.60;1.50;;;;;;;;;;5050583;28;20736;-46
2022/09/27 14:43:49;;;;;;;4.20;1.50;;;;;;;;;;5048470;28;20201;-47
2022/09/27 14:46:26;;;;;;;1.83;1.70;;;;;;;;;;5049036;28;20537;-44
2022/09/27 14:48:54;;;;;;;2.80;2.03;;;;;;;;;;5050148;28;20207;-44
2022/09/27 14:51:25;;;;;;;2.67;2.00;;;;;;;;;;5048864;28;20243;-44
2022/09/27 14:53:57;;;;;;;2.03;1.80;;;;;;;;;;5050666;28;20216;-44
2022/09/27 14:56:26;;;;;;;2.00;1.83;;;;;;;;;;5050903;28;20206;-44
2022/09/27 14:58:55;;;;;;;2.53;2.30;;;;;;;;;;5049730;28;20279;-44
2022/09/27 15:01:22;;;;;;;2.43;2.20;;;;;;;;;;5050616;28;20203;-44